sensor_id;sensor_type;location;lat;lon;timestamp;P1;durP1;ratioP1;P2;durP2;ratioP2
13683;SDS011;6914;53.552;9.908;2022-12-18T00:01:14;25.47;;;14.70;;
13683;SDS011;6914;53.552;9.908;2022-12-18T00:03:43;30.97;;;16.33;;
13683;SDS011;6914;53.552;9.908;2022-12-18T00:06:10;27.17;;;15.87;;
13683;SDS011;6914;53.552;9.908;2022-12-18T00:08:38;30.57;;;14.60;;
13683;SDS011;6914;53.552;9.908;2022-12-18T00:11:06;21.47;;;14.13;;
13683;SDS011;6914;53.552;9.908;2022-12-18T00:13:34;18.80;;;12.37;;
13683;SDS011;6914;53.552;9.908;2022-12-18T00:16:02;22.70;;;14.30;;
13683;SDS011;6914;53.552;9.908;2022-12-18T00:18:31;19.00;;;13.63;;
13683;SDS011;6914;53.552;9.908;2022-12-18T00:20:59;38.90;;;15.50;;
13683;SDS011;6914;53.552;9.908;2022-12-18T00:23:27;26.30;;;13.43;;
13683;SDS011;6914;53.552;9.908;2022-12-18T00:25:54;22.03;;;13.03;;
13683;SDS011;6914;53.552;9.908;2022-12-18T00:28:25;19.43;;;12.90;;
13683;SDS011;6914;53.552;9.908;2022-12-18T00:30:58;17.10;;;12.37;;
13683;SDS011;6914;53.552;9.908;2022-12-18T00:33:26;18.93;;;13.40;;
13683;SDS011;6914;53.552;9.908;2022-12-18T00:35:55;16.53;;;11.63;;
13683;SDS011;6914;53.552;9.908;2022-12-18T00:38:27;18.27;;;11.67;;
13683;SDS011;6914;53.552;9.908;2022-12-18T00:40:54;18.07;;;13.40;;
13683;SDS011;6914;53.552;9.908;2022-12-18T00:43:20;19.93;;;13.30;;
13683;SDS011;6914;53.552;9.908;2022-12-18T00:45:47;23.07;;;12.93;;
13683;SDS011;6914;53.552;9.908;2022-12-18T00:48:14;20.83;;;12.07;;
13683;SDS011;6914;53.552;9.908;2022-12-18T00:50:41;20.27;;;12.00;;
13683;SDS011;6914;53.552;9.908;2022-12-18T00:53:09;21.80;;;14.40;;
13683;SDS011;6914;53.552;9.908;2022-12-18T00:55:37;30.83;;;14.50;;
13683;SDS011;6914;53.552;9.908;2022-12-18T00:58:05;19.80;;;13.07;;
13683;SDS011;6914;53.552;9.908;2022-12-18T01:00:32;23.80;;;12.10;;
13683;SDS011;6914;53.552;9.908;2022-12-18T01:02:59;21.90;;;13.13;;
13683;SDS011;6914;53.552;9.908;2022-12-18T01:05:26;20.43;;;12.83;;
13683;SDS011;6914;53.552;9.908;2022-12-18T01:07:53;19.50;;;12.83;;
13683;SDS011;6914;53.552;9.908;2022-12-18T01:10:23;16.43;;;11.70;;
13683;SDS011;6914;53.552;9.908;2022-12-18T01:12:51;23.57;;;12.83;;
13683;SDS011;6914;53.552;9.908;2022-12-18T01:15:18;16.30;;;11.90;;
13683;SDS011;6914;53.552;9.908;2022-12-18T01:17:46;33.10;;;14.00;;
13683;SDS011;6914;53.552;9.908;2022-12-18T01:20:13;16.37;;;11.63;;
13683;SDS011;6914;53.552;9.908;2022-12-18T01:22:40;20.73;;;12.50;;
13683;SDS011;6914;53.552;9.908;2022-12-18T01:25:07;27.40;;;13.27;;
13683;SDS011;6914;53.552;9.908;2022-12-18T01:27:36;26.70;;;13.00;;
13683;SDS011;6914;53.552;9.908;2022-12-18T01:30:03;19.20;;;12.70;;
13683;SDS011;6914;53.552;9.908;2022-12-18T01:32:31;19.23;;;12.07;;
13683;SDS011;6914;53.552;9.908;2022-12-18T01:34:58;21.93;;;12.57;;
13683;SDS011;6914;53.552;9.908;2022-12-18T01:37:25;19.00;;;13.13;;
13683;SDS011;6914;53.552;9.908;2022-12-18T01:39:52;19.07;;;12.47;;
13683;SDS011;6914;53.552;9.908;2022-12-18T01:42:20;20.30;;;11.73;;
13683;SDS011;6914;53.552;9.908;2022-12-18T01:44:56;23.37;;;12.87;;
13683;SDS011;6914;53.552;9.908;2022-12-18T01:47:26;19.20;;;11.97;;
13683;SDS011;6914;53.552;9.908;2022-12-18T01:49:57;21.07;;;13.17;;
13683;SDS011;6914;53.552;9.908;2022-12-18T01:52:25;21.03;;;13.37;;
13683;SDS011;6914;53.552;9.908;2022-12-18T01:54:56;19.17;;;12.97;;
13683;SDS011;6914;53.552;9.908;2022-12-18T01:57:23;19.10;;;12.00;;
13683;SDS011;6914;53.552;9.908;2022-12-18T01:59:52;21.47;;;12.60;;
13683;SDS011;6914;53.552;9.908;2022-12-18T02:02:23;31.40;;;12.53;;
13683;SDS011;6914;53.552;9.908;2022-12-18T02:04:50;21.60;;;12.83;;
13683;SDS011;6914;53.552;9.908;2022-12-18T02:07:20;22.40;;;11.83;;
13683;SDS011;6914;53.552;9.908;2022-12-18T02:09:53;18.40;;;11.67;;
13683;SDS011;6914;53.552;9.908;2022-12-18T02:12:26;23.07;;;12.53;;
13683;SDS011;6914;53.552;9.908;2022-12-18T02:15:02;17.43;;;12.70;;
13683;SDS011;6914;53.552;9.908;2022-12-18T02:17:36;23.47;;;13.60;;
13683;SDS011;6914;53.552;9.908;2022-12-18T02:20:09;19.17;;;11.20;;
13683;SDS011;6914;53.552;9.908;2022-12-18T02:22:44;19.90;;;12.93;;
13683;SDS011;6914;53.552;9.908;2022-12-18T02:25:26;24.43;;;13.13;;
13683;SDS011;6914;53.552;9.908;2022-12-18T02:28:06;25.53;;;13.63;;
13683;SDS011;6914;53.552;9.908;2022-12-18T02:30:38;19.87;;;11.80;;
13683;SDS011;6914;53.552;9.908;2022-12-18T02:33:06;16.90;;;10.93;;
13683;SDS011;6914;53.552;9.908;2022-12-18T02:35:37;17.70;;;12.27;;
13683;SDS011;6914;53.552;9.908;2022-12-18T02:38:06;21.37;;;11.43;;
13683;SDS011;6914;53.552;9.908;2022-12-18T02:40:33;18.50;;;11.23;;
13683;SDS011;6914;53.552;9.908;2022-12-18T02:43:02;20.50;;;13.60;;
13683;SDS011;6914;53.552;9.908;2022-12-18T02:45:34;18.80;;;11.90;;
13683;SDS011;6914;53.552;9.908;2022-12-18T02:48:01;21.50;;;11.67;;
13683;SDS011;6914;53.552;9.908;2022-12-18T02:50:30;13.00;;;10.23;;
13683;SDS011;6914;53.552;9.908;2022-12-18T02:53:05;17.07;;;11.70;;
13683;SDS011;6914;53.552;9.908;2022-12-18T02:55:44;20.30;;;12.93;;
13683;SDS011;6914;53.552;9.908;2022-12-18T02:58:24;23.10;;;12.03;;
13683;SDS011;6914;53.552;9.908;2022-12-18T03:00:57;17.20;;;11.33;;
13683;SDS011;6914;53.552;9.908;2022-12-18T03:03:28;18.80;;;12.90;;
13683;SDS011;6914;53.552;9.908;2022-12-18T03:06:01;31.40;;;12.00;;
13683;SDS011;6914;53.552;9.908;2022-12-18T03:08:33;16.00;;;11.30;;
13683;SDS011;6914;53.552;9.908;2022-12-18T03:11:04;22.30;;;11.63;;
13683;SDS011;6914;53.552;9.908;2022-12-18T03:13:36;18.20;;;10.90;;
13683;SDS011;6914;53.552;9.908;2022-12-18T03:16:06;19.37;;;12.43;;
13683;SDS011;6914;53.552;9.908;2022-12-18T03:18:36;27.17;;;11.57;;
13683;SDS011;6914;53.552;9.908;2022-12-18T03:21:08;17.77;;;12.50;;
13683;SDS011;6914;53.552;9.908;2022-12-18T03:23:39;21.67;;;12.07;;
13683;SDS011;6914;53.552;9.908;2022-12-18T03:26:10;14.73;;;10.63;;
13683;SDS011;6914;53.552;9.908;2022-12-18T03:28:42;18.67;;;11.87;;
13683;SDS011;6914;53.552;9.908;2022-12-18T03:31:13;22.13;;;12.90;;
13683;SDS011;6914;53.552;9.908;2022-12-18T03:33:41;24.03;;;13.00;;
13683;SDS011;6914;53.552;9.908;2022-12-18T03:36:12;20.27;;;12.77;;
13683;SDS011;6914;53.552;9.908;2022-12-18T03:38:39;19.30;;;11.73;;
13683;SDS011;6914;53.552;9.908;2022-12-18T03:41:08;15.90;;;11.73;;
13683;SDS011;6914;53.552;9.908;2022-12-18T03:43:50;14.03;;;11.20;;
13683;SDS011;6914;53.552;9.908;2022-12-18T03:46:24;23.30;;;11.80;;
13683;SDS011;6914;53.552;9.908;2022-12-18T03:48:57;20.83;;;12.33;;
13683;SDS011;6914;53.552;9.908;2022-12-18T03:51:30;20.73;;;13.53;;
13683;SDS011;6914;53.552;9.908;2022-12-18T03:54:03;25.53;;;11.40;;
13683;SDS011;6914;53.552;9.908;2022-12-18T03:56:33;19.93;;;11.80;;
13683;SDS011;6914;53.552;9.908;2022-12-18T03:59:05;25.50;;;12.40;;
13683;SDS011;6914;53.552;9.908;2022-12-18T04:01:35;24.40;;;12.93;;
13683;SDS011;6914;53.552;9.908;2022-12-18T04:04:04;23.73;;;13.10;;
13683;SDS011;6914;53.552;9.908;2022-12-18T04:06:33;16.80;;;11.17;;
13683;SDS011;6914;53.552;9.908;2022-12-18T04:09:01;19.13;;;12.10;;
13683;SDS011;6914;53.552;9.908;2022-12-18T04:11:28;15.60;;;10.40;;
13683;SDS011;6914;53.552;9.908;2022-12-18T04:13:55;20.80;;;10.60;;
13683;SDS011;6914;53.552;9.908;2022-12-18T04:16:24;17.03;;;11.37;;
13683;SDS011;6914;53.552;9.908;2022-12-18T04:18:52;19.10;;;11.63;;
13683;SDS011;6914;53.552;9.908;2022-12-18T04:21:20;17.00;;;11.80;;
13683;SDS011;6914;53.552;9.908;2022-12-18T04:23:47;17.73;;;11.77;;
13683;SDS011;6914;53.552;9.908;2022-12-18T04:26:17;17.30;;;11.50;;
13683;SDS011;6914;53.552;9.908;2022-12-18T04:28:43;17.30;;;10.57;;
13683;SDS011;6914;53.552;9.908;2022-12-18T04:31:10;17.50;;;10.80;;
13683;SDS011;6914;53.552;9.908;2022-12-18T04:33:39;17.30;;;10.37;;
13683;SDS011;6914;53.552;9.908;2022-12-18T04:36:06;12.43;;;9.60;;
13683;SDS011;6914;53.552;9.908;2022-12-18T04:38:33;17.03;;;10.90;;
13683;SDS011;6914;53.552;9.908;2022-12-18T04:41:00;15.13;;;9.90;;
13683;SDS011;6914;53.552;9.908;2022-12-18T04:43:27;15.03;;;10.03;;
13683;SDS011;6914;53.552;9.908;2022-12-18T04:46:00;14.60;;;10.37;;
13683;SDS011;6914;53.552;9.908;2022-12-18T04:48:28;26.83;;;10.53;;
13683;SDS011;6914;53.552;9.908;2022-12-18T04:50:57;16.60;;;10.13;;
13683;SDS011;6914;53.552;9.908;2022-12-18T04:53:24;18.70;;;11.50;;
13683;SDS011;6914;53.552;9.908;2022-12-18T04:56:01;30.00;;;13.73;;
13683;SDS011;6914;53.552;9.908;2022-12-18T04:58:29;21.33;;;15.10;;
13683;SDS011;6914;53.552;9.908;2022-12-18T05:00:57;22.70;;;13.93;;
13683;SDS011;6914;53.552;9.908;2022-12-18T05:03:24;21.03;;;12.70;;
13683;SDS011;6914;53.552;9.908;2022-12-18T05:05:51;33.80;;;10.63;;
13683;SDS011;6914;53.552;9.908;2022-12-18T05:08:20;23.10;;;11.03;;
13683;SDS011;6914;53.552;9.908;2022-12-18T05:10:47;16.87;;;12.70;;
13683;SDS011;6914;53.552;9.908;2022-12-18T05:13:14;21.13;;;11.40;;
13683;SDS011;6914;53.552;9.908;2022-12-18T05:15:40;16.57;;;10.57;;
13683;SDS011;6914;53.552;9.908;2022-12-18T05:18:08;13.87;;;10.20;;
13683;SDS011;6914;53.552;9.908;2022-12-18T05:20:35;18.87;;;10.17;;
13683;SDS011;6914;53.552;9.908;2022-12-18T05:23:02;12.40;;;9.90;;
13683;SDS011;6914;53.552;9.908;2022-12-18T05:25:30;17.27;;;10.20;;
13683;SDS011;6914;53.552;9.908;2022-12-18T05:27:57;16.97;;;9.03;;
13683;SDS011;6914;53.552;9.908;2022-12-18T05:30:24;20.83;;;10.77;;
13683;SDS011;6914;53.552;9.908;2022-12-18T05:32:52;17.50;;;11.43;;
13683;SDS011;6914;53.552;9.908;2022-12-18T05:35:19;12.80;;;9.10;;
13683;SDS011;6914;53.552;9.908;2022-12-18T05:37:46;19.03;;;11.10;;
13683;SDS011;6914;53.552;9.908;2022-12-18T05:40:13;24.57;;;12.60;;
13683;SDS011;6914;53.552;9.908;2022-12-18T05:42:41;15.80;;;10.40;;
13683;SDS011;6914;53.552;9.908;2022-12-18T05:45:08;15.20;;;11.40;;
13683;SDS011;6914;53.552;9.908;2022-12-18T05:47:35;21.97;;;10.60;;
13683;SDS011;6914;53.552;9.908;2022-12-18T05:50:03;16.77;;;11.00;;
13683;SDS011;6914;53.552;9.908;2022-12-18T05:52:30;17.77;;;11.50;;
13683;SDS011;6914;53.552;9.908;2022-12-18T05:54:57;23.27;;;11.57;;
13683;SDS011;6914;53.552;9.908;2022-12-18T05:57:25;16.63;;;11.03;;
13683;SDS011;6914;53.552;9.908;2022-12-18T05:59:53;18.73;;;9.97;;
13683;SDS011;6914;53.552;9.908;2022-12-18T06:02:20;21.03;;;10.33;;
13683;SDS011;6914;53.552;9.908;2022-12-18T06:04:47;17.90;;;11.40;;
13683;SDS011;6914;53.552;9.908;2022-12-18T06:07:14;22.87;;;12.73;;
13683;SDS011;6914;53.552;9.908;2022-12-18T06:09:41;23.07;;;11.87;;
13683;SDS011;6914;53.552;9.908;2022-12-18T06:12:10;15.17;;;11.00;;
13683;SDS011;6914;53.552;9.908;2022-12-18T06:14:39;19.07;;;12.13;;
13683;SDS011;6914;53.552;9.908;2022-12-18T06:17:07;26.43;;;12.27;;
13683;SDS011;6914;53.552;9.908;2022-12-18T06:19:35;19.77;;;12.20;;
13683;SDS011;6914;53.552;9.908;2022-12-18T06:22:02;18.47;;;10.97;;
13683;SDS011;6914;53.552;9.908;2022-12-18T06:24:29;18.70;;;12.33;;
13683;SDS011;6914;53.552;9.908;2022-12-18T06:26:56;19.07;;;10.50;;
13683;SDS011;6914;53.552;9.908;2022-12-18T06:29:24;15.70;;;10.40;;
13683;SDS011;6914;53.552;9.908;2022-12-18T06:31:50;15.13;;;10.17;;
13683;SDS011;6914;53.552;9.908;2022-12-18T06:34:19;24.23;;;11.53;;
13683;SDS011;6914;53.552;9.908;2022-12-18T06:36:46;14.70;;;10.50;;
13683;SDS011;6914;53.552;9.908;2022-12-18T06:39:12;17.17;;;11.33;;
13683;SDS011;6914;53.552;9.908;2022-12-18T06:41:39;26.83;;;10.90;;
13683;SDS011;6914;53.552;9.908;2022-12-18T06:44:06;21.47;;;12.30;;
13683;SDS011;6914;53.552;9.908;2022-12-18T06:46:33;16.47;;;10.47;;
13683;SDS011;6914;53.552;9.908;2022-12-18T06:49:00;13.20;;;10.03;;
13683;SDS011;6914;53.552;9.908;2022-12-18T06:51:28;19.77;;;10.53;;
13683;SDS011;6914;53.552;9.908;2022-12-18T06:53:55;17.67;;;10.73;;
13683;SDS011;6914;53.552;9.908;2022-12-18T06:56:22;14.67;;;9.60;;
13683;SDS011;6914;53.552;9.908;2022-12-18T06:58:49;14.40;;;10.37;;
13683;SDS011;6914;53.552;9.908;2022-12-18T07:01:16;18.67;;;10.90;;
13683;SDS011;6914;53.552;9.908;2022-12-18T07:03:43;17.80;;;10.47;;
13683;SDS011;6914;53.552;9.908;2022-12-18T07:06:13;15.73;;;9.77;;
13683;SDS011;6914;53.552;9.908;2022-12-18T07:08:43;16.80;;;9.90;;
13683;SDS011;6914;53.552;9.908;2022-12-18T07:11:10;16.97;;;10.00;;
13683;SDS011;6914;53.552;9.908;2022-12-18T07:13:37;19.77;;;10.37;;
13683;SDS011;6914;53.552;9.908;2022-12-18T07:16:05;22.90;;;12.40;;
13683;SDS011;6914;53.552;9.908;2022-12-18T07:18:34;15.13;;;10.33;;
13683;SDS011;6914;53.552;9.908;2022-12-18T07:21:03;17.73;;;11.17;;
13683;SDS011;6914;53.552;9.908;2022-12-18T07:23:31;14.83;;;10.67;;
13683;SDS011;6914;53.552;9.908;2022-12-18T07:26:02;19.07;;;10.40;;
13683;SDS011;6914;53.552;9.908;2022-12-18T07:28:29;14.97;;;10.67;;
13683;SDS011;6914;53.552;9.908;2022-12-18T07:30:57;16.27;;;10.63;;
13683;SDS011;6914;53.552;9.908;2022-12-18T07:33:25;16.23;;;10.17;;
13683;SDS011;6914;53.552;9.908;2022-12-18T07:35:52;23.03;;;11.50;;
13683;SDS011;6914;53.552;9.908;2022-12-18T07:38:19;13.23;;;9.63;;
13683;SDS011;6914;53.552;9.908;2022-12-18T07:40:46;21.43;;;10.07;;
13683;SDS011;6914;53.552;9.908;2022-12-18T07:43:14;16.30;;;10.53;;
13683;SDS011;6914;53.552;9.908;2022-12-18T07:45:42;18.90;;;12.13;;
13683;SDS011;6914;53.552;9.908;2022-12-18T07:48:09;17.23;;;11.33;;
13683;SDS011;6914;53.552;9.908;2022-12-18T07:50:36;17.43;;;11.03;;
13683;SDS011;6914;53.552;9.908;2022-12-18T07:53:03;20.17;;;11.60;;
13683;SDS011;6914;53.552;9.908;2022-12-18T07:55:30;22.00;;;11.33;;
13683;SDS011;6914;53.552;9.908;2022-12-18T07:58:00;21.43;;;10.40;;
13683;SDS011;6914;53.552;9.908;2022-12-18T08:00:29;16.60;;;11.47;;
13683;SDS011;6914;53.552;9.908;2022-12-18T08:02:57;12.67;;;10.33;;
13683;SDS011;6914;53.552;9.908;2022-12-18T08:05:25;17.37;;;11.23;;
13683;SDS011;6914;53.552;9.908;2022-12-18T08:07:53;11.43;;;9.07;;
13683;SDS011;6914;53.552;9.908;2022-12-18T08:10:21;16.30;;;9.70;;
13683;SDS011;6914;53.552;9.908;2022-12-18T08:12:48;17.93;;;11.43;;
13683;SDS011;6914;53.552;9.908;2022-12-18T08:15:16;21.47;;;12.23;;
13683;SDS011;6914;53.552;9.908;2022-12-18T08:17:44;20.30;;;11.73;;
13683;SDS011;6914;53.552;9.908;2022-12-18T08:20:11;19.20;;;11.03;;
13683;SDS011;6914;53.552;9.908;2022-12-18T08:22:39;17.40;;;12.30;;
13683;SDS011;6914;53.552;9.908;2022-12-18T08:25:06;16.50;;;11.10;;
13683;SDS011;6914;53.552;9.908;2022-12-18T08:27:34;16.73;;;10.80;;
13683;SDS011;6914;53.552;9.908;2022-12-18T08:30:01;19.23;;;11.70;;
13683;SDS011;6914;53.552;9.908;2022-12-18T08:32:29;18.40;;;11.27;;
13683;SDS011;6914;53.552;9.908;2022-12-18T08:34:58;23.60;;;11.77;;
13683;SDS011;6914;53.552;9.908;2022-12-18T08:37:25;17.10;;;10.20;;
13683;SDS011;6914;53.552;9.908;2022-12-18T08:39:52;22.30;;;13.60;;
13683;SDS011;6914;53.552;9.908;2022-12-18T08:42:19;17.37;;;11.30;;
13683;SDS011;6914;53.552;9.908;2022-12-18T08:45:04;13.87;;;9.80;;
13683;SDS011;6914;53.552;9.908;2022-12-18T08:47:31;16.13;;;10.60;;
13683;SDS011;6914;53.552;9.908;2022-12-18T08:50:01;16.27;;;10.70;;
13683;SDS011;6914;53.552;9.908;2022-12-18T08:52:28;24.50;;;11.33;;
13683;SDS011;6914;53.552;9.908;2022-12-18T08:54:57;18.50;;;11.80;;
13683;SDS011;6914;53.552;9.908;2022-12-18T08:57:25;18.03;;;10.60;;
13683;SDS011;6914;53.552;9.908;2022-12-18T08:59:52;23.77;;;11.67;;
13683;SDS011;6914;53.552;9.908;2022-12-18T09:02:19;26.87;;;11.70;;
13683;SDS011;6914;53.552;9.908;2022-12-18T09:04:46;18.10;;;11.67;;
13683;SDS011;6914;53.552;9.908;2022-12-18T09:07:15;11.80;;;10.50;;
13683;SDS011;6914;53.552;9.908;2022-12-18T09:09:42;17.67;;;11.43;;
13683;SDS011;6914;53.552;9.908;2022-12-18T09:12:09;21.23;;;10.73;;
13683;SDS011;6914;53.552;9.908;2022-12-18T09:14:36;19.33;;;10.60;;
13683;SDS011;6914;53.552;9.908;2022-12-18T09:17:03;22.67;;;11.57;;
13683;SDS011;6914;53.552;9.908;2022-12-18T09:19:30;20.03;;;10.40;;
13683;SDS011;6914;53.552;9.908;2022-12-18T09:21:57;22.03;;;9.93;;
13683;SDS011;6914;53.552;9.908;2022-12-18T09:24:25;18.00;;;11.00;;
13683;SDS011;6914;53.552;9.908;2022-12-18T09:26:52;19.37;;;11.03;;
13683;SDS011;6914;53.552;9.908;2022-12-18T09:29:20;14.20;;;9.37;;
13683;SDS011;6914;53.552;9.908;2022-12-18T09:31:47;13.90;;;10.20;;
13683;SDS011;6914;53.552;9.908;2022-12-18T09:34:14;14.57;;;10.23;;
13683;SDS011;6914;53.552;9.908;2022-12-18T09:36:41;17.20;;;10.10;;
13683;SDS011;6914;53.552;9.908;2022-12-18T09:39:08;14.03;;;9.77;;
13683;SDS011;6914;53.552;9.908;2022-12-18T09:41:39;14.60;;;10.10;;
13683;SDS011;6914;53.552;9.908;2022-12-18T09:44:21;14.53;;;10.20;;
13683;SDS011;6914;53.552;9.908;2022-12-18T09:46:52;18.33;;;10.73;;
13683;SDS011;6914;53.552;9.908;2022-12-18T09:49:25;15.50;;;10.17;;
13683;SDS011;6914;53.552;9.908;2022-12-18T09:51:56;21.13;;;9.83;;
13683;SDS011;6914;53.552;9.908;2022-12-18T09:54:30;19.23;;;10.60;;
13683;SDS011;6914;53.552;9.908;2022-12-18T09:57:01;15.10;;;9.00;;
13683;SDS011;6914;53.552;9.908;2022-12-18T09:59:30;13.37;;;9.60;;
13683;SDS011;6914;53.552;9.908;2022-12-18T10:02:10;15.13;;;9.67;;
13683;SDS011;6914;53.552;9.908;2022-12-18T10:04:40;14.00;;;10.40;;
13683;SDS011;6914;53.552;9.908;2022-12-18T10:07:08;19.40;;;10.23;;
13683;SDS011;6914;53.552;9.908;2022-12-18T10:09:42;17.73;;;10.97;;
13683;SDS011;6914;53.552;9.908;2022-12-18T10:12:19;14.23;;;10.33;;
13683;SDS011;6914;53.552;9.908;2022-12-18T10:14:53;14.73;;;9.30;;
13683;SDS011;6914;53.552;9.908;2022-12-18T10:17:26;15.70;;;10.57;;
13683;SDS011;6914;53.552;9.908;2022-12-18T10:20:01;25.63;;;10.50;;
13683;SDS011;6914;53.552;9.908;2022-12-18T10:22:35;11.73;;;9.70;;
13683;SDS011;6914;53.552;9.908;2022-12-18T10:25:15;18.57;;;9.83;;
13683;SDS011;6914;53.552;9.908;2022-12-18T10:27:49;14.73;;;9.67;;
13683;SDS011;6914;53.552;9.908;2022-12-18T10:30:20;15.63;;;8.80;;
13683;SDS011;6914;53.552;9.908;2022-12-18T10:32:48;13.93;;;10.57;;
13683;SDS011;6914;53.552;9.908;2022-12-18T10:35:17;11.40;;;10.20;;
13683;SDS011;6914;53.552;9.908;2022-12-18T10:38:02;19.53;;;10.63;;
13683;SDS011;6914;53.552;9.908;2022-12-18T10:40:31;16.37;;;9.73;;
13683;SDS011;6914;53.552;9.908;2022-12-18T10:43:10;17.77;;;9.80;;
13683;SDS011;6914;53.552;9.908;2022-12-18T10:45:39;15.27;;;9.77;;
13683;SDS011;6914;53.552;9.908;2022-12-18T10:48:17;16.30;;;8.57;;
13683;SDS011;6914;53.552;9.908;2022-12-18T10:50:46;19.67;;;10.57;;
13683;SDS011;6914;53.552;9.908;2022-12-18T10:53:18;10.20;;;8.90;;
13683;SDS011;6914;53.552;9.908;2022-12-18T10:55:47;11.80;;;8.03;;
13683;SDS011;6914;53.552;9.908;2022-12-18T10:58:22;11.57;;;9.57;;
13683;SDS011;6914;53.552;9.908;2022-12-18T11:01:07;20.00;;;10.23;;
13683;SDS011;6914;53.552;9.908;2022-12-18T11:03:37;14.93;;;9.03;;
13683;SDS011;6914;53.552;9.908;2022-12-18T11:06:06;16.80;;;10.30;;
13683;SDS011;6914;53.552;9.908;2022-12-18T11:08:35;13.50;;;9.77;;
13683;SDS011;6914;53.552;9.908;2022-12-18T11:11:03;16.40;;;9.77;;
13683;SDS011;6914;53.552;9.908;2022-12-18T11:13:42;12.53;;;9.00;;
13683;SDS011;6914;53.552;9.908;2022-12-18T11:16:22;14.60;;;9.90;;
13683;SDS011;6914;53.552;9.908;2022-12-18T11:18:49;16.60;;;11.70;;
13683;SDS011;6914;53.552;9.908;2022-12-18T11:21:16;13.63;;;9.33;;
13683;SDS011;6914;53.552;9.908;2022-12-18T11:23:45;10.67;;;8.80;;
13683;SDS011;6914;53.552;9.908;2022-12-18T11:26:14;16.23;;;10.73;;
13683;SDS011;6914;53.552;9.908;2022-12-18T11:28:43;18.20;;;11.53;;
13683;SDS011;6914;53.552;9.908;2022-12-18T11:31:23;18.77;;;13.10;;
13683;SDS011;6914;53.552;9.908;2022-12-18T11:34:01;17.80;;;10.70;;
13683;SDS011;6914;53.552;9.908;2022-12-18T11:36:35;19.37;;;11.20;;
13683;SDS011;6914;53.552;9.908;2022-12-18T11:39:08;12.77;;;9.43;;
13683;SDS011;6914;53.552;9.908;2022-12-18T11:41:43;14.90;;;10.90;;
13683;SDS011;6914;53.552;9.908;2022-12-18T11:44:38;17.63;;;10.97;;
13683;SDS011;6914;53.552;9.908;2022-12-18T11:47:15;17.63;;;11.47;;
13683;SDS011;6914;53.552;9.908;2022-12-18T11:49:50;23.90;;;11.63;;
13683;SDS011;6914;53.552;9.908;2022-12-18T11:52:19;18.20;;;11.13;;
13683;SDS011;6914;53.552;9.908;2022-12-18T11:54:50;13.00;;;9.90;;
13683;SDS011;6914;53.552;9.908;2022-12-18T11:57:19;16.40;;;11.30;;
13683;SDS011;6914;53.552;9.908;2022-12-18T12:00:03;19.30;;;10.43;;
13683;SDS011;6914;53.552;9.908;2022-12-18T12:02:41;18.10;;;11.20;;
13683;SDS011;6914;53.552;9.908;2022-12-18T12:05:18;19.67;;;13.43;;
13683;SDS011;6914;53.552;9.908;2022-12-18T12:08:04;21.63;;;11.87;;
13683;SDS011;6914;53.552;9.908;2022-12-18T12:10:39;18.40;;;12.23;;
13683;SDS011;6914;53.552;9.908;2022-12-18T12:16:09;21.23;;;14.00;;
13683;SDS011;6914;53.552;9.908;2022-12-18T12:18:52;19.47;;;13.10;;
13683;SDS011;6914;53.552;9.908;2022-12-18T12:21:34;15.53;;;11.70;;
13683;SDS011;6914;53.552;9.908;2022-12-18T12:24:09;20.50;;;13.13;;
13683;SDS011;6914;53.552;9.908;2022-12-18T12:26:49;26.23;;;15.93;;
13683;SDS011;6914;53.552;9.908;2022-12-18T12:29:31;20.50;;;12.47;;
13683;SDS011;6914;53.552;9.908;2022-12-18T12:32:10;21.80;;;13.93;;
13683;SDS011;6914;53.552;9.908;2022-12-18T12:34:49;20.90;;;12.27;;
13683;SDS011;6914;53.552;9.908;2022-12-18T12:37:26;24.00;;;13.20;;
13683;SDS011;6914;53.552;9.908;2022-12-18T12:40:02;20.03;;;11.13;;
13683;SDS011;6914;53.552;9.908;2022-12-18T12:42:31;18.60;;;13.37;;
13683;SDS011;6914;53.552;9.908;2022-12-18T12:45:20;24.50;;;13.20;;
13683;SDS011;6914;53.552;9.908;2022-12-18T12:47:55;18.47;;;13.13;;
13683;SDS011;6914;53.552;9.908;2022-12-18T12:50:24;24.37;;;14.60;;
13683;SDS011;6914;53.552;9.908;2022-12-18T12:52:53;25.30;;;14.97;;
13683;SDS011;6914;53.552;9.908;2022-12-18T12:55:23;19.00;;;13.17;;
13683;SDS011;6914;53.552;9.908;2022-12-18T12:57:55;23.93;;;13.77;;
13683;SDS011;6914;53.552;9.908;2022-12-18T13:00:29;26.43;;;14.73;;
13683;SDS011;6914;53.552;9.908;2022-12-18T13:03:06;24.33;;;13.60;;
13683;SDS011;6914;53.552;9.908;2022-12-18T13:05:38;21.93;;;13.80;;
13683;SDS011;6914;53.552;9.908;2022-12-18T13:08:10;24.97;;;14.70;;
13683;SDS011;6914;53.552;9.908;2022-12-18T13:10:47;25.60;;;14.30;;
13683;SDS011;6914;53.552;9.908;2022-12-18T13:13:15;23.50;;;12.90;;
13683;SDS011;6914;53.552;9.908;2022-12-18T13:15:42;26.30;;;13.43;;
13683;SDS011;6914;53.552;9.908;2022-12-18T13:18:16;28.20;;;15.17;;
13683;SDS011;6914;53.552;9.908;2022-12-18T13:20:45;28.97;;;16.30;;
13683;SDS011;6914;53.552;9.908;2022-12-18T13:23:27;24.17;;;13.10;;
13683;SDS011;6914;53.552;9.908;2022-12-18T13:25:56;24.90;;;15.73;;
13683;SDS011;6914;53.552;9.908;2022-12-18T13:28:49;19.80;;;13.13;;
13683;SDS011;6914;53.552;9.908;2022-12-18T13:34:35;22.13;;;12.93;;
13683;SDS011;6914;53.552;9.908;2022-12-18T13:43:15;28.40;;;15.43;;
13683;SDS011;6914;53.552;9.908;2022-12-18T13:45:58;26.27;;;15.33;;
13683;SDS011;6914;53.552;9.908;2022-12-18T13:48:27;26.90;;;15.37;;
13683;SDS011;6914;53.552;9.908;2022-12-18T13:51:03;29.83;;;16.97;;
13683;SDS011;6914;53.552;9.908;2022-12-18T13:53:33;29.20;;;17.43;;
13683;SDS011;6914;53.552;9.908;2022-12-18T13:56:04;33.60;;;16.60;;
13683;SDS011;6914;53.552;9.908;2022-12-18T13:58:32;28.90;;;16.90;;
13683;SDS011;6914;53.552;9.908;2022-12-18T14:00:59;29.80;;;15.30;;
13683;SDS011;6914;53.552;9.908;2022-12-18T14:03:29;29.67;;;14.87;;
13683;SDS011;6914;53.552;9.908;2022-12-18T14:05:59;36.10;;;19.77;;
13683;SDS011;6914;53.552;9.908;2022-12-18T14:08:39;36.97;;;17.03;;
13683;SDS011;6914;53.552;9.908;2022-12-18T14:11:16;33.40;;;18.70;;
13683;SDS011;6914;53.552;9.908;2022-12-18T14:13:46;33.30;;;17.53;;
13683;SDS011;6914;53.552;9.908;2022-12-18T14:16:14;38.93;;;17.17;;
13683;SDS011;6914;53.552;9.908;2022-12-18T14:18:44;35.50;;;16.77;;
13683;SDS011;6914;53.552;9.908;2022-12-18T14:21:19;33.17;;;16.83;;
13683;SDS011;6914;53.552;9.908;2022-12-18T14:23:49;46.20;;;18.90;;
13683;SDS011;6914;53.552;9.908;2022-12-18T14:26:29;29.73;;;15.57;;
13683;SDS011;6914;53.552;9.908;2022-12-18T14:28:58;35.37;;;18.43;;
13683;SDS011;6914;53.552;9.908;2022-12-18T14:31:27;40.50;;;16.57;;
13683;SDS011;6914;53.552;9.908;2022-12-18T14:33:56;42.33;;;19.03;;
13683;SDS011;6914;53.552;9.908;2022-12-18T14:36:25;33.87;;;17.53;;
13683;SDS011;6914;53.552;9.908;2022-12-18T14:38:55;37.63;;;17.90;;
13683;SDS011;6914;53.552;9.908;2022-12-18T14:41:22;39.10;;;19.10;;
13683;SDS011;6914;53.552;9.908;2022-12-18T14:43:51;39.57;;;20.80;;
13683;SDS011;6914;53.552;9.908;2022-12-18T14:46:27;45.90;;;19.77;;
13683;SDS011;6914;53.552;9.908;2022-12-18T14:48:57;34.63;;;17.73;;
13683;SDS011;6914;53.552;9.908;2022-12-18T14:51:26;47.63;;;18.97;;
13683;SDS011;6914;53.552;9.908;2022-12-18T14:53:55;36.53;;;17.00;;
13683;SDS011;6914;53.552;9.908;2022-12-18T14:56:24;36.57;;;20.00;;
13683;SDS011;6914;53.552;9.908;2022-12-18T14:58:53;43.33;;;17.77;;
13683;SDS011;6914;53.552;9.908;2022-12-18T15:01:23;35.63;;;18.53;;
13683;SDS011;6914;53.552;9.908;2022-12-18T15:03:53;40.40;;;18.37;;
13683;SDS011;6914;53.552;9.908;2022-12-18T15:06:27;45.67;;;19.50;;